Tiempo atmosférico en la estación meteorológica de Hervas, Cáceres (738 m.)



Fecha
DESCASC
Temp. máxima en grados centígrados (hora)
DESCASC
Temp. mínima en grados centígrados (hora)
DESCASC
Temp. media en grados centígrados
DESCASC
Racha de viento máxima en m/sg (hora)
DESCASC
Velocidad máxima media en intervalos de 10 minutos(hora)
DESCASC
Precipitaciones diarias en mm
DESCASC
Precipitaciones de 00:00 a 06:00 en mm
DESCASC
Precipitaciones de 06:00 a 12:00 en mm
DESCASC
Precipitaciones de 12:00 a 18:00 en mm
DESCASC
Precipitaciones de 18:00 a 24:00 en mm
DESCASC
28-05-2020 27.7 (16:50) 15.1 (07:40) 21.4 10.56 (05:20) 5.56 (05:20) 0 0 0 0 0
27-05-2020 29 (17:40) 15.4 (01:40) 22.2 11.39 (02:40) 6.67 (02:40) 0 0 0 0 0
26-05-2020 26 (15:30) 14.8 (07:10) 20.4 6.94 (15:50) 3.89 (16:00) 0 0 0 0 0
25-05-2020 28.4 (16:20) 16.2 (06:20) 22.3 5.28 (17:50) 3.89 (05:00) 0 0 0 0 0
24-05-2020 27.9 (19:40) 16.2 (00:00) 22.1 4.72 (16:00) 3.06 (22:40) 0 0 0 0 0
23-05-2020 28.7 (18:40) 13.9 (00:00) 21.3 5.28 (11:50) 3.89 (01:30) 0 0 0 0 0
22-05-2020 26.8 (19:50) 13.4 (00:00) 20.1 6.39 (15:20) 3.61 (23:59) 0 0 0 0 0
21-05-2020 26 (19:20) 13.6 (00:00) 19.8 7.22 (15:20) 3.89 (22:00) 0 0 0 0 0
20-05-2020 26.7 (17:20) 14.3 (00:00) 20.5 5.83 (18:40) 3.89 (22:10) 0 0 0 0 0
19-05-2020 25.9 (17:40) 11.9 (00:00) 18.9 7.5 (14:30) 4.72 (13:30) 0 0 0 0 0
18-05-2020 24.7 (18:30) 9.7 (00:00) 17.2 9.44 (16:30) 5 (16:10) 0 0 0 0 0
17-05-2020 20.9 (18:30) 8 (00:00) 14.4 9.44 (17:30) 4.72 (17:40) 0 0 0 0 0
16-05-2020 19.6 (18:40) 7 (00:00) 13.3 7.5 (19:40) 3.61 (18:20) 0 0 0 0 0
15-05-2020 17.6 (19:50) 9.2 (00:00) 13.4 9.17 (21:20) 4.17 (20:00) 1 0 0 1 0
14-05-2020 15.5 (18:10) 7.1 (00:00) 11.3 6.67 (20:00) 3.33 (00:10) 14.2 14.2 0 0 0
13-05-2020 16.1 (15:30) 9 (00:00) 12.6 10.83 (20:50) 5.28 (20:50) 1.6 0 1.4 0.2 0
12-05-2020 13.8 (15:10) 8.4 (00:00) 11.1 6.94 (16:40) 3.33 (05:20) 7.6 0 1.2 4.4 2
11-05-2020 15.5 (13:40) 9.2 (00:00) 12.3 8.06 (12:10) 4.44 (13:40) 14.6 0.8 5 6.4 2.4
10-05-2020 14.4 (16:50) 7.9 (00:00) 11.1 5.83 (12:30) 2.78 (13:40) 4.2 0 0 4.2 0
09-05-2020 18.3 (16:20) 9.9 (00:00) 14.1 11.11 (19:10) 6.39 (19:50) 2.2 0 0 0 2.2
08-05-2020 23.4 (15:30) 13 (00:00) 18.2 11.11 (01:40) 5 (02:10) 0 0 0 0 0
07-05-2020 24.7 (17:50) 12.3 (00:00) 18.5 8.89 (21:00) 3.33 (21:00) 0 0 0 0 0
06-05-2020 21.4 (19:50) 9.4 (00:00) 15.4 5.83 (13:10) 3.61 (04:40) 0 0 0 0 0
05-05-2020 19 (17:30) 8.1 (00:00) 13.6 7.5 (17:40) 3.89 (17:40) 0 0 0 0 0
04-05-2020 24.9 (12:00) 13.2 (00:00) 19 18.61 (09:30) 7.78 (13:50) 0 0 0 0 0
03-05-2020 26.8 (18:00) 10.8 (00:00) 18.8 9.72 (18:30) 5 (19:40) 0 0 0 0 0
02-05-2020 22 (19:10) 10.1 (00:00) 16.1 5.83 (13:30) 3.89 (23:50) 0 0 0 0 0

Gráficas

Temp. máximas Temp. mínimas Temp. medias Precipitaciones Rachas de viento máximas Velocidades máximas media en intervalos de 10 minutos

Datos horarios

Fecha y hora oficial Temperatura (ºC) Velocidad del viento (km/h) Dirección del viento Racha (km/h) Dirección de racha Precipitación (mm) Presión (hPa) Tendencia (hPa) Humedad (%)
2020-05-31 23:00:00 16.9 5 Sur 15 Sur 0 -- -- 61
2020-05-31 22:00:00 18.6 8 Este 24 Nordeste 0 -- -- 55
2020-05-31 21:00:00 19.7 12 Este 31 Este 0 -- -- 52
2020-05-31 20:00:00 21 12 Norte 34 Noroeste 0 -- -- 50
2020-05-31 19:00:00 23.9 4 Sudoeste 18 Sur 0 -- -- 55
2020-05-31 18:00:00 25.9 12 Sur 27 Sudeste 0 -- -- 41
2020-05-31 17:00:00 25.7 8 Sur 12 Sur 0 -- -- 54
2020-05-31 16:00:00 25.1 6 Sudoeste 10 Sudoeste 0 -- -- 60
2020-05-31 15:00:00 26.1 3 Este 14 Noroeste 0 -- -- 49
2020-05-31 14:00:00 24.6 8 Oeste 21 Oeste 0 -- -- 58
2020-05-31 13:00:00 24.8 4 Sudoeste 10 Noroeste 0 -- -- 54
2020-05-31 12:00:00 24.3 4 Sudoeste 12 Noroeste 0 -- -- 53
2020-05-31 11:00:00 23.4 3 Noroeste 7 Oeste 0 -- -- 55
2020-05-31 10:00:00 22.3 4 Nordeste 8 Nordeste 0 -- -- 61
2020-05-31 09:00:00 20.1 4 Sudeste 8 Sudeste 0 -- -- 67
2020-05-31 08:00:00 17.4 6 Sudeste 9 Sur 0 -- -- 71
2020-05-31 07:00:00 17.2 4 Sudeste 9 Sudeste 0 -- -- 67
2020-05-31 06:00:00 18.8 8 Sudeste 15 Sudeste 0 -- -- 59
2020-05-31 05:00:00 18.6 5 Sudeste 11 Sur 0 -- -- 61
2020-05-31 04:00:00 17.3 8 Sur 13 Sur 0 -- -- 62
2020-05-31 03:00:00 17.9 9 Sudeste 12 Sur 0 -- -- 57
2020-05-31 02:00:00 17.1 6 Sur 14 Sur 0 -- -- 66
2020-05-31 01:00:00 17.6 9 Sur 15 Sur 0 -- -- 69
2020-05-31 00:00:00 17.9 9 Sudeste 15 Sur 0 -- -- 70
2020-05-30 23:00:00 19.1 8 Sudeste 16 Sur 0 -- -- 68
2020-05-30 22:00:00 19.5 8 Sudeste 14 Sur 0 -- -- 75
2020-05-30 21:00:00 21 4 Sudeste 13 Sur 0 -- -- 68
2020-05-30 20:00:00 22.5 9 Sur 14 Sur 0 -- -- 67
2020-05-30 19:00:00 24.1 5 Sur 8 Sur 0 -- -- 68
2020-05-30 18:00:00 26.2 5 Sur 13 Oeste 0 -- -- 54
2020-05-30 17:00:00 27.2 5 Sudoeste 19 Sur 0 -- -- 46
2020-05-30 16:00:00 29.3 8 Sur 19 Sudeste 0 -- -- 36
2020-05-30 15:00:00 28.2 7 Oeste 22 Oeste 0 -- -- 43
2020-05-30 14:00:00 26.9 7 Oeste 14 Oeste 0 -- -- 56
2020-05-30 13:00:00 25.8 5 Oeste 12 Oeste 0 -- -- 56
2020-05-30 12:00:00 24.1 8 Oeste 12 Oeste 0 -- -- 58
2020-05-30 11:00:00 24.3 4 Noroeste 10 Noroeste 0 -- -- 63
2020-05-30 10:00:00 24.4 3 Sudeste 10 Sur 0 -- -- 53
2020-05-30 09:00:00 20.6 7 Sudeste 13 Sur 0 -- -- 68
2020-05-30 08:00:00 18.3 10 Sudeste 14 Sur 0 -- -- 65
2020-05-30 07:00:00 17.1 9 Sur 14 Sur 0 -- -- 68
2020-05-30 06:00:00 16.1 9 Sur 15 Sudeste 0 -- -- 73
2020-05-30 05:00:00 17 9 Sudeste 17 Sur 0 -- -- 71
2020-05-30 04:00:00 17.6 9 Sur 15 Sur 0 -- -- 70
2020-05-30 03:00:00 18.5 8 Sudeste 17 Sur 0 -- -- 68
2020-05-30 02:00:00 18.4 9 Sudeste 15 Sur 0 -- -- 69
2020-05-30 01:00:00 18.8 11 Sur 16 Sur 0 -- -- 70
2020-05-30 00:00:00 19.2 6 Sudeste 14 Sur 0 -- -- 70
2020-05-29 23:00:00 19.9 10 Sur 18 Sur 0 -- -- 69
2020-05-29 22:00:00 20.7 10 Sur 17 Sur 0 -- -- 68
2020-05-29 21:00:00 21.7 11 Sur 16 Sur 0 -- -- 68
2020-05-29 20:00:00 24.1 8 Sur 14 Sur 0 -- -- 63
2020-05-29 19:00:00 26.2 3 Sudoeste 11 Noroeste 0 -- -- 55
2020-05-29 18:00:00 28.1 4 Noroeste 14 Oeste 0 -- -- 46
2020-05-29 17:00:00 27.8 6 Noroeste 15 Oeste 0 -- -- 48
2020-05-29 16:00:00 27.3 9 Noroeste 18 Oeste 0 -- -- 48
2020-05-29 15:00:00 26.5 6 Oeste 14 Noroeste 0 -- -- 51
2020-05-29 14:00:00 25.6 7 Oeste 15 Oeste 0 -- -- 52
2020-05-29 13:00:00 24.4 8 Noroeste 14 Oeste 0 -- -- 53
2020-05-29 12:00:00 23.4 6 Noroeste 13 Oeste 0 -- -- 61
2020-05-29 11:00:00 22.5 4 Oeste 9 Noroeste 0 -- -- 63
2020-05-29 10:00:00 22.1 5 Oeste 9 Noroeste 0 -- -- 60
2020-05-29 09:00:00 20.1 7 Sur 13 Sur 0 -- -- 72
2020-05-29 08:00:00 16.6 9 Sudeste 17 Sur 0 -- -- 73
2020-05-29 07:00:00 17.4 12 Sur 18 Sur 0 -- -- 64
2020-05-29 06:00:00 16.7 11 Sur 16 Sur 0 -- -- 68
2020-05-29 05:00:00 16.6 12 Sur 17 Sur 0 -- -- 66
2020-05-29 04:00:00 17.2 10 Sur 15 Sur 0 -- -- 63
2020-05-29 03:00:00 17.7 7 Sudeste 15 Sur 0 -- -- 61
2020-05-29 02:00:00 17.7 3 Sudoeste 10 Este 0 -- -- 62
2020-05-29 01:00:00 18.2 5 Sudeste 12 Sudeste 0 -- -- 58
2020-05-29 00:00:00 18 7 Sudeste 13 Sur 0 -- -- 70
2020-05-28 23:00:00 18.9 7 Sudeste 17 Sur 0 -- -- 69
2020-05-28 22:00:00 20.3 12 Sur 16 Sur 0 -- -- 64
2020-05-28 21:00:00 23.3 7 Sur 10 Sur 0 -- -- 64
2020-05-28 20:00:00 26.6 5 Oeste 13 Oeste 0 -- -- 47
2020-05-28 19:00:00 27.1 6 Oeste 14 Noroeste 0 -- -- 49
2020-05-28 18:00:00 26.8 10 Noroeste 18 Oeste 0 -- -- 47
2020-05-28 17:00:00 27.4 7 Noroeste 14 Noroeste 0 -- -- 44
2020-05-28 16:00:00 26.7 8 Noroeste 15 Noroeste 0 -- -- 51
2020-05-28 15:00:00 25.8 8 Oeste 15 Noroeste 0 -- -- 51
2020-05-28 14:00:00 24.6 7 Noroeste 15 Oeste 0 -- -- 54
2020-05-28 13:00:00 23.4 7 Noroeste 15 Noroeste 0 -- -- 58
2020-05-28 12:00:00 22 7 Noroeste 12 Noroeste 0 -- -- 65
2020-05-28 11:00:00 21.1 4 Noroeste 9 Oeste 0 -- -- 65
2020-05-28 10:00:00 19.9 4 Noroeste 7 Noroeste 0 -- -- 59
2020-05-28 09:00:00 19.2 2 Oeste 10 Sudeste 0 -- -- 60
2020-05-28 08:00:00 16 9 Sur 13 Sudeste 0 -- -- 66
2020-05-28 07:00:00 16 6 Sudeste 12 Oeste 0 -- -- 60
2020-05-28 06:00:00 21.9 5 Sudeste 38 Sudeste 0 -- -- 33
2020-05-28 05:00:00 22.1 15 Sudeste 27 Sudeste 0 -- -- 35
2020-05-28 04:00:00 21.5 9 Este 27 Este 0 -- -- 43
2020-05-28 03:00:00 22.4 13 Este 33 Este 0 -- -- 44
2020-05-28 02:00:00 21.7 8 Este 24 Sudeste 0 -- -- 48
2020-05-28 01:00:00 22.8 15 Sudeste 28 Sudeste 0 -- -- 43
2020-05-28 00:00:00 23.5 15 Sudeste 28 Sudeste 0 -- -- 42
2020-05-27 23:00:00 23.3 9 Sudeste 21 Sudeste 0 -- -- 43
2020-05-27 22:00:00 23.9 12 Sudeste 28 Sudeste 0 -- -- 42
2020-05-27 21:00:00 25.1 16 Sudeste 30 Sudeste 0 -- -- 40
2020-05-27 20:00:00 25.5 12 Sudeste 23 Sudeste 0 -- -- 45
2020-05-27 19:00:00 27.6 9 Sur 24 Sur 0 -- -- 40
2020-05-27 18:00:00 28.5 9 Noroeste 16 Noroeste 0 -- -- 48
2020-05-27 17:00:00 28 3 Nordeste 12 Oeste 0 -- -- 43
2020-05-27 16:00:00 28 6 Oeste 15 Noroeste 0 -- -- 49
2020-05-27 15:00:00 27.3 6 Oeste 13 Oeste 0 -- -- 48
2020-05-27 14:00:00 26 5 Oeste 12 Oeste 0 -- -- 48
2020-05-27 13:00:00 24.9 5 Oeste 11 Sudoeste 0 -- -- 52
2020-05-27 12:00:00 23.4 5 Noroeste 13 Oeste 0 -- -- 62
2020-05-27 11:00:00 23.4 5 Noroeste 10 Noroeste 0 -- -- 60
2020-05-27 10:00:00 23.7 3 Oeste 7 Sudeste 0 -- -- 60
2020-05-27 09:00:00 21.9 5 Este 26 Este 0 -- -- 57
2020-05-27 08:00:00 19.3 9 Nordeste 25 Nordeste 0 -- -- 60
2020-05-27 07:00:00 16.6 4 Sur 9 Sudeste 0 -- -- 69
2020-05-27 06:00:00 19.5 3 Noroeste 24 Sur 0 -- -- 56
2020-05-27 05:00:00 21.6 9 Sudeste 31 Sudeste 0 -- -- 50
2020-05-27 04:00:00 21.1 4 Sudeste 36 Sudeste 0 -- -- 57
2020-05-27 03:00:00 22.2 18 Sudeste 41 Sudeste 0 -- -- 53
2020-05-27 02:00:00 17.3 8 Sur 21 Este 0 -- -- 65
2020-05-27 01:00:00 16.3 6 Sudeste 12 Sudeste 0 -- -- 72
2020-05-27 00:00:00 16.3 8 Sudeste 10 Sudeste 0 -- -- 76
2020-05-26 23:00:00 17.6 5 Sudeste 15 Sudeste 0 -- -- 70
2020-05-26 22:00:00 18.7 8 Sudeste 13 Sur 0 -- -- 81
2020-05-26 21:00:00 22.4 8 Sur 11 Sur 0 -- -- 73
2020-05-26 20:00:00 25 3 Noroeste 10 Noroeste 0 -- -- 57
2020-05-26 19:00:00 23.4 2 Noroeste 9 Sur 0 -- -- 64
2020-05-26 18:00:00 20.8 3 Sudeste 19 Sudeste 0 -- -- 75
2020-05-26 17:00:00 21.3 4 Este 21 Sudeste 0 -- -- 69
2020-05-26 16:00:00 23.8 14 Sudeste 25 Sudeste 0 -- -- 58
2020-05-26 15:00:00 25.2 4 Noroeste 23 Sudeste 0 -- -- 63
2020-05-26 14:00:00 25 4 Sur 14 Oeste 0 -- -- 57
2020-05-26 13:00:00 23.4 6 Oeste 12 Oeste 0 -- -- 65
2020-05-26 12:00:00 21.9 5 Oeste 13 Oeste 0 -- -- 65
2020-05-26 11:00:00 20.1 7 Oeste 13 Oeste 0 -- -- 68
2020-05-26 10:00:00 19.7 6 Noroeste 9 Noroeste 0 -- -- 75
2020-05-26 09:00:00 19 2 Sudeste 5 Sudeste 0 -- -- 76
2020-05-26 08:00:00 15.5 6 Sur 10 Sur 0 -- -- 86
2020-05-26 07:00:00 15.1 5 Sur 10 Sur 0 -- -- 84
2020-05-26 06:00:00 15.2 7 Sur 11 Sur 0 -- -- 82
2020-05-26 05:00:00 15.1 7 Sudeste 10 Sur 0 -- -- 83
2020-05-26 04:00:00 16.5 6 Sudeste 14 Sur 0 -- -- 77
2020-05-26 03:00:00 17.9 9 Sur 14 Sudoeste 0 -- -- 70
2020-05-26 02:00:00 17.5 6 Sur 11 Sudeste 0 -- -- 70
2020-05-26 01:00:00 18.4 4 Sudeste 11 Sudoeste 0 -- -- 68
2020-05-26 00:00:00 18.7 5 Sudoeste 13 Sur 0 -- -- 65
2020-05-25 23:00:00 19.6 7 Sur 14 Sur 0 -- -- 63
2020-05-25 22:00:00 21 6 Sudeste 12 Sur 0 -- -- 66
2020-05-25 21:00:00 23 7 Sur 10 Sur 0 -- -- 68
2020-05-25 20:00:00 26.6 3 Nordeste 9 Este 0 -- -- 56
2020-05-25 19:00:00 24.8 2 Sur 11 Oeste 0 -- -- 70
2020-05-25 18:00:00 27.4 7 Sudoeste 19 Sudoeste 0 -- -- 51
2020-05-25 17:00:00 27.8 6 Noroeste 15 Noroeste 0 -- -- 49
2020-05-25 16:00:00 28.2 6 Oeste 13 Oeste 0 -- -- 49
2020-05-25 15:00:00 27.4 6 Oeste 15 Noroeste 0 -- -- 50
2020-05-25 14:00:00 26.5 4 Oeste 13 Oeste 0 -- -- 55
2020-05-25 13:00:00 25.4 5 Noroeste 13 Noroeste 0 -- -- 57
2020-05-25 12:00:00 24.2 6 Oeste 10 Oeste 0 -- -- 57
2020-05-25 11:00:00 23.5 4 Noroeste 9 Noroeste 0 -- -- 62
2020-05-25 10:00:00 23.1 3 Noroeste 8 Sur 0 -- -- 61
2020-05-25 09:00:00 19.9 5 Sudeste 15 Sur 0 -- -- 82
2020-05-25 08:00:00 17.3 9 Sudeste 18 Sur 0 -- -- 79
2020-05-25 07:00:00 17.2 10 Sur 17 Sur 0 -- -- 74
2020-05-25 06:00:00 16.3 8 Sudeste 15 Sur 0 -- -- 80
2020-05-25 05:00:00 17.5 14 Sur 17 Sur 0 -- -- 73
2020-05-25 04:00:00 17.7 9 Sudeste 17 Sur 0 -- -- 73
2020-05-25 03:00:00 17.4 9 Sudeste 15 Sur 0 -- -- 76
2020-05-25 02:00:00 17.1 8 Sudeste 15 Sur 0 -- -- 79
2020-05-25 01:00:00 18.3 9 Sur 14 Sudeste 0 -- -- 73
2020-05-25 00:00:00 18.6 10 Sur 15 Sur 0 -- -- 70
2020-05-24 23:00:00 20.1 10 Sur 15 Sur 0 -- -- 69
2020-05-24 22:00:00 20.5 9 Sur 13 Sur 0 -- -- 72
2020-05-24 21:00:00 23.7 8 Sur 11 Sur 0 -- -- 70
2020-05-24 20:00:00 27.9 0 Calma 6 Oeste 0 -- -- 52
2020-05-24 19:00:00 27.6 3 Norte 8 Noroeste 0 -- -- 54
2020-05-24 18:00:00 26.5 2 Sudoeste 11 Noroeste 0 -- -- 57
2020-05-24 17:00:00 26.4 4 Oeste 13 Sudoeste 0 -- -- 57
2020-05-24 16:00:00 26.9 6 Noroeste 17 Norte 0 -- -- 57
2020-05-24 15:00:00 25.5 5 Oeste 12 Noroeste 0 -- -- 63
2020-05-24 14:00:00 24.5 6 Noroeste 13 Noroeste 0 -- -- 62
2020-05-24 13:00:00 23.6 5 Noroeste 10 Oeste 0 -- -- 64
2020-05-24 12:00:00 22.6 7 Oeste 13 Noroeste 0 -- -- 64
2020-05-24 11:00:00 22 5 Oeste 10 Oeste 0 -- -- 68
2020-05-24 10:00:00 21.3 4 Oeste 7 Noroeste 0 -- -- 68
2020-05-24 09:00:00 20.6 2 Oeste 8 Sudeste 0 -- -- 71
2020-05-24 08:00:00 16.5 6 Sudeste 12 Sur 0 -- -- 86
2020-05-24 07:00:00 16.2 6 Sur 13 Sur 0 -- -- 83
2020-05-24 06:00:00 17.1 5 Sur 15 Sur 0 -- -- 80
2020-05-24 05:00:00 16.6 6 Sudeste 12 Sudeste 0 -- -- 80
2020-05-24 04:00:00 16.4 8 Sudeste 10 Sur 0 -- -- 83
2020-05-24 03:00:00 17.1 6 Sudeste 12 Sur 0 -- -- 80
2020-05-24 02:00:00 17.8 5 Sur 12 Sur 0 -- -- 77
2020-05-24 01:00:00 17.9 6 Sudeste 11 Sur 0 -- -- 78
2020-05-24 00:00:00 18.6 8 Sur 14 Sur 0 -- -- 76
2020-05-23 23:00:00 19.6 8 Sudeste 13 Sudeste 0 -- -- 74
2020-05-23 22:00:00 20.7 9 Sudeste 12 Sudeste 0 -- -- 73
2020-05-23 21:00:00 23.6 4 Sudoeste 11 Sur 0 -- -- 65
2020-05-23 20:00:00 27.6 5 Oeste 12 Oeste 0 -- -- 54
2020-05-23 19:00:00 28.5 5 Oeste 14 Noroeste 0 -- -- 48
2020-05-23 18:00:00 28.4 5 Oeste 12 Oeste 0 -- -- 47
2020-05-23 17:00:00 27.9 6 Noroeste 15 Oeste 0 -- -- 48
2020-05-23 16:00:00 27.3 6 Noroeste 19 Noroeste 0 -- -- 54
2020-05-23 15:00:00 27.2 6 Norte 18 Noroeste 0 -- -- 60
2020-05-23 14:00:00 26.4 4 Noroeste 18 Norte 0 -- -- 57
2020-05-23 13:00:00 26.1 4 Noroeste 18 Noroeste 0 -- -- 59
2020-05-23 12:00:00 24.9 9 Oeste 19 Oeste 0 -- -- 58
2020-05-23 11:00:00 23.8 8 Oeste 15 Oeste 0 -- -- 56
2020-05-23 10:00:00 22.4 2 Sudoeste 8 Sudoeste 0 -- -- 59
2020-05-23 09:00:00 19.1 5 Sudeste 14 Sudeste 0 -- -- 68
2020-05-23 08:00:00 14.5 11 Sur 15 Sur 0 -- -- 78
2020-05-23 07:00:00 14.5 6 Sudeste 17 Sur 0 -- -- 77
2020-05-23 06:00:00 15.3 12 Sudeste 17 Sur 0 -- -- 77
2020-05-23 05:00:00 14.4 8 Sudeste 15 Sur 0 -- -- 80
2020-05-23 04:00:00 14.5 7 Sudeste 15 Sur 0 -- -- 80
2020-05-23 03:00:00 15.4 7 Sur 13 Sudeste 0 -- -- 76
2020-05-23 02:00:00 16.3 9 Sudeste 18 Sur 0 -- -- 68
2020-05-23 01:00:00 16.7 8 Sudeste 15 Sur 0 -- -- 66
2020-05-23 00:00:00 17.8 13 Sur 18 Sur 0 -- -- 63
2020-05-22 23:00:00 17.7 11 Sur 14 Sur 0 -- -- 67
2020-05-22 22:00:00 18.8 9 Sudeste 14 Sur 0 -- -- 67
2020-05-22 21:00:00 22.7 6 Sur 9 Sur 0 -- -- 59
2020-05-22 20:00:00 26.8 3 Noroeste 12 Oeste 0 -- -- 45
2020-05-22 19:00:00 26.6 5 Oeste 19 Sudoeste 0 -- -- 42
2020-05-22 18:00:00 26.3 10 Oeste 23 Oeste 0 -- -- 44
2020-05-22 17:00:00 26.4 9 Noroeste 23 Noroeste 0 -- -- 50
2020-05-22 16:00:00 26.2 9 Oeste 23 Noroeste 0 -- -- 41
2020-05-22 15:00:00 25.4 11 Noroeste 21 Oeste 0 -- -- 48
2020-05-22 14:00:00 25 6 Noroeste 14 Noroeste 0 -- -- 45
2020-05-22 13:00:00 24.7 5 Noroeste 12 Noroeste 0 -- -- 46
2020-05-22 12:00:00 23.6 5 Oeste 12 Oeste 0 -- -- 46
2020-05-22 11:00:00 23.3 5 Noroeste 8 Oeste 0 -- -- 46
2020-05-22 10:00:00 21.7 3 Sudeste 12 Sur 0 -- -- 60
2020-05-22 09:00:00 17.3 7 Sudeste 11 Sudeste 0 -- -- 72
2020-05-22 08:00:00 13.8 9 Sudeste 16 Sur 0 -- -- 72
2020-05-22 07:00:00 13.5 11 Sudeste 15 Sur 0 -- -- 69
2020-05-22 06:00:00 14.5 11 Sudeste 16 Sur 0 -- -- 69
2020-05-22 05:00:00 14.5 11 Sudeste 17 Sur 0 -- -- 73
2020-05-22 04:00:00 14.6 10 Sur 14 Sudeste 0 -- -- 74
2020-05-22 03:00:00 14.4 10 Sudeste 15 Sur 0 -- -- 76
2020-05-22 02:00:00 15.6 8 Sudeste 17 Sur 0 -- -- 73
2020-05-22 01:00:00 15.7 9 Sudeste 17 Sur 0 -- -- 74
2020-05-22 00:00:00 16.8 10 Sudeste 17 Sur 0 -- -- 71
2020-05-21 23:00:00 17.6 12 Sur 18 Sur 0 -- -- 69
2020-05-21 22:00:00 19.3 14 Sur 18 Sur 0 -- -- 63
2020-05-21 21:00:00 23.1 6 Sur 11 Noroeste 0 -- -- 56
2020-05-21 20:00:00 25.8 5 Oeste 15 Noroeste 0 -- -- 44
2020-05-21 19:00:00 25.9 6 Noroeste 25 Oeste 0 -- -- 47
2020-05-21 18:00:00 25.9 8 Oeste 24 Oeste 0 -- -- 47
2020-05-21 17:00:00 25.7 10 Oeste 25 Oeste 0 -- -- 51
2020-05-21 16:00:00 25.7 9 Oeste 26 Oeste 0 -- -- 55
2020-05-21 15:00:00 25.3 11 Oeste 23 Oeste 0 -- -- 58
2020-05-21 14:00:00 24.8 9 Noroeste 21 Noroeste 0 -- -- 61
2020-05-21 13:00:00 23.9 9 Noroeste 17 Norte 0 -- -- 60
2020-05-21 12:00:00 23.6 6 Oeste 11 Noroeste 0 -- -- 54
2020-05-21 11:00:00 23.6 3 Norte 7 Nordeste 0 -- -- 44
2020-05-21 10:00:00 21.6 0 Calma 5 Sudeste 0 -- -- 56
2020-05-21 09:00:00 19 4 Sudeste 12 Sur 0 -- -- 66
2020-05-21 08:00:00 14.4 9 Sudeste 15 Sur 0 -- -- 68
2020-05-21 07:00:00 13.7 9 Sudeste 16 Sur 0 -- -- 72
2020-05-21 06:00:00 14.1 9 Sudeste 13 Sudeste 0 -- -- 73
2020-05-21 05:00:00 14.4 9 Sudeste 17 Sur 0 -- -- 75
2020-05-21 04:00:00 15.3 9 Sudeste 17 Sur 0 -- -- 71
2020-05-21 03:00:00 16 11 Sudeste 17 Sur 0 -- -- 70
2020-05-21 02:00:00 16.1 11 Sur 16 Sur 0 -- -- 72
2020-05-21 01:00:00 16.4 8 Sudeste 15 Sur 0 -- -- 71
2020-05-21 00:00:00 17.7 11 Sur 15 Sur 0 -- -- 64
2020-05-20 23:00:00 18.1 9 Sudeste 18 Sur 0 -- -- 62
2020-05-20 22:00:00 19.5 13 Sur 19 Sur 0 -- -- 56
2020-05-20 21:00:00 23.2 5 Sur 9 Sudoeste 0 -- -- 52
2020-05-20 20:00:00 26.2 4 Oeste 15 Oeste 0 -- -- 43
2020-05-20 19:00:00 25.9 5 Sudoeste 21 Oeste 0 -- -- 44
2020-05-20 18:00:00 26.5 8 Noroeste 18 Oeste 0 -- -- 45
2020-05-20 17:00:00 26.5 8 Noroeste 19 Oeste 0 -- -- 47
2020-05-20 16:00:00 26.1 9 Noroeste 18 Noroeste 0 -- -- 47
2020-05-20 15:00:00 25.3 7 Noroeste 15 Noroeste 0 -- -- 46
2020-05-20 14:00:00 24.7 9 Noroeste 17 Oeste 0 -- -- 48
2020-05-20 13:00:00 23.9 7 Noroeste 13 Norte 0 -- -- 53
2020-05-20 12:00:00 22.9 6 Noroeste 12 Noroeste 0 -- -- 57
2020-05-20 11:00:00 22.3 5 Oeste 11 Noroeste 0 -- -- 57
2020-05-20 10:00:00 22.3 2 Noroeste 9 Sudeste 0 -- -- 60
2020-05-20 09:00:00 18.3 8 Sudeste 13 Sur 0 -- -- 73
2020-05-20 08:00:00 14.5 11 Sur 15 Sur 0 -- -- 70
2020-05-20 07:00:00 14.5 11 Sur 17 Sur 0 -- -- 66
2020-05-20 06:00:00 15.2 11 Sur 15 Sur 0 -- -- 63
2020-05-20 05:00:00 15.1 10 Sudeste 14 Sudeste 0 -- -- 64
2020-05-20 04:00:00 14.9 9 Sudeste 15 Sur 0 -- -- 64
2020-05-20 03:00:00 14.9 11 Sur 17 Sur 0 -- -- 64
2020-05-20 02:00:00 15.2 9 Sudeste 18 Sur 0 -- -- 63
2020-05-20 01:00:00 15 11 Sudeste 17 Sur 0 -- -- 63
2020-05-20 00:00:00 15.7 9 Sudeste 17 Sur 0 -- -- 61
2020-05-19 23:00:00 16.4 9 Sudeste 16 Sur 0 -- -- 62
2020-05-19 22:00:00 17.9 9 Sudeste 13 Sudeste 0 -- -- 58
2020-05-19 21:00:00 23.7 6 Sur 23 Norte 0 -- -- 47
2020-05-19 20:00:00 25.4 9 Norte 21 Norte 0 -- -- 38
2020-05-19 19:00:00 25.7 12 Norte 22 Noroeste 0 -- -- 35
2020-05-19 18:00:00 25.8 11 Noroeste 23 Noroeste 0 -- -- 36
2020-05-19 17:00:00 25.8 11 Norte 25 Norte 0 -- -- 37
2020-05-19 16:00:00 25.6 10 Norte 27 Noroeste 0 -- -- 37
2020-05-19 15:00:00 25.1 12 Norte 27 Noroeste 0 -- -- 43
2020-05-19 14:00:00 24.2 16 Norte 27 Norte 0 -- -- 39
2020-05-19 13:00:00 23.7 9 Noroeste 22 Oeste 0 -- -- 40
2020-05-19 12:00:00 23 6 Oeste 12 Noroeste 0 -- -- 46
2020-05-19 11:00:00 21.8 5 Noroeste 8 Noroeste 0 -- -- 47
2020-05-19 10:00:00 20.9 0 Calma 10 Sur 0 -- -- 55
2020-05-19 09:00:00 16.7 7 Sudeste 15 Sur 0 -- -- 64
2020-05-19 08:00:00 12.4 10 Sur 16 Sur 0 -- -- 68
2020-05-19 07:00:00 12.3 12 Sur 17 Sur 0 -- -- 65
2020-05-19 06:00:00 12.2 10 Sudeste 16 Sur 0 -- -- 64
2020-05-19 05:00:00 12.2 9 Sudeste 16 Sur 0 -- -- 64
2020-05-19 04:00:00 12.6 10 Sur 18 Sur 0 -- -- 64
2020-05-19 03:00:00 13.7 13 Sur 20 Sur 0 -- -- 56
2020-05-19 02:00:00 13.2 10 Sudeste 14 Sudeste 0 -- -- 63
2020-05-19 01:00:00 13.4 8 Sudeste 18 Sudeste 0 -- -- 64
2020-05-19 00:00:00 14.5 8 Sudeste 15 Sudeste 0 -- -- 60
2020-05-18 23:00:00 15.5 8 Sudeste 12 Sudeste 0 -- -- 57
2020-05-18 22:00:00 16.7 6 Sudeste 14 Este 0 -- -- 57
2020-05-18 21:00:00 22.5 7 Nordeste 17 Nordeste 0 -- -- 37
2020-05-18 20:00:00 24 9 Norte 24 Nordeste 0 -- -- 36
2020-05-18 19:00:00 24.6 10 Norte 30 Norte 0 -- -- 35
2020-05-18 18:00:00 24.5 10 Norte 29 Norte 0 -- -- 38
2020-05-18 17:00:00 24.5 9 Norte 34 Noroeste 0 -- -- 38
2020-05-18 16:00:00 23.8 17 Norte 32 Norte 0 -- -- 38
2020-05-18 15:00:00 23.3 16 Norte 31 Norte 0 -- -- 41
2020-05-18 14:00:00 22.7 12 Norte 27 Noroeste 0 -- -- 41
2020-05-18 13:00:00 22 12 Norte 24 Norte 0 -- -- 45
2020-05-18 12:00:00 20.4 4 Oeste 14 Noroeste 0 -- -- 46
2020-05-18 11:00:00 19.7 5 Noroeste 10 Noroeste 0 -- -- 50
2020-05-18 10:00:00 18.9 3 Este 6 Sur 0 -- -- 46
2020-05-18 09:00:00 14.6 6 Sudeste 14 Sur 0 -- -- 71
2020-05-18 08:00:00 10.4 9 Sudeste 18 Sudeste 0 -- -- 72
2020-05-18 07:00:00 10.3 10 Sur 19 Sur 0 -- -- 63
2020-05-18 06:00:00 10.1 11 Sur 19 Sur 0 -- -- 65
2020-05-18 05:00:00 10.6 10 Sur 18 Sur 0 -- -- 66
2020-05-18 04:00:00 10.1 10 Sudeste 15 Sur 0 -- -- 74
2020-05-18 03:00:00 10.4 7 Sudeste 15 Sur 0 -- -- 74
2020-05-18 02:00:00 10.7 10 Sudeste 14 Sur 0 -- -- 76
2020-05-18 01:00:00 11.5 8 Sudeste 14 Sur 0 -- -- 73
2020-05-18 00:00:00 12 9 Sudeste 13 Sudeste 0 -- -- 73
2020-05-17 23:00:00 12.2 7 Sudeste 13 Este 0 -- -- 77
2020-05-17 22:00:00 14.4 6 Sudeste 13 Nordeste 0 -- -- 67
2020-05-17 21:00:00 19.4 2 Norte 26 Nordeste 0 -- -- 51
2020-05-17 20:00:00 20.1 13 Norte 27 Norte 0 -- -- 46
2020-05-17 19:00:00 20.7 12 Norte 28 Noroeste 0 -- -- 47
2020-05-17 18:00:00 20.5 12 Norte 34 Noroeste 0 -- -- 54
2020-05-17 17:00:00 20.1 17 Noroeste 30 Norte 0 -- -- 51
2020-05-17 16:00:00 18.6 16 Noroeste 32 Noroeste 0 -- -- 52
2020-05-17 15:00:00 19.2 7 Oeste 19 Oeste 0 -- -- 59
2020-05-17 14:00:00 18.4 6 Oeste 23 Norte 0 -- -- 56
2020-05-17 13:00:00 17.4 8 Noroeste 18 Noroeste 0 -- -- 61
2020-05-17 12:00:00 15.7 5 Noroeste 13 Noroeste 0 -- -- 57
2020-05-17 11:00:00 14.4 3 Noroeste 15 Oeste 0 -- -- 61
2020-05-17 10:00:00 12.3 7 Oeste 11 Oeste 0 -- -- 71
2020-05-17 09:00:00 11.1 2 Este 8 Sudeste 0 -- -- 74
2020-05-17 08:00:00 8.2 5 Sudeste 14 Sur 0 -- -- 81
2020-05-17 07:00:00 8.4 8 Sur 14 Sur 0 -- -- 82
2020-05-17 06:00:00 8.1 6 Sudeste 15 Sur 0 -- -- 85
2020-05-17 05:00:00 8.2 8 Sudeste 14 Sur 0 -- -- 86
2020-05-17 04:00:00 8.7 11 Sur 15 Sur 0 -- -- 85
2020-05-17 03:00:00 8.9 6 Sudeste 15 Sur 0 -- -- 84
2020-05-17 02:00:00 9.3 10 Sur 14 Sur 0 -- -- 82
2020-05-17 01:00:00 10.6 8 Sur 14 Sur 0 -- -- 79
2020-05-17 00:00:00 10.9 8 Sudeste 15 Este 0 -- -- 83
2020-05-16 23:00:00 11.9 9 Sudeste 16 Sur 0 -- -- 81
2020-05-16 22:00:00 14.5 2 Oeste 21 Norte 0 -- -- 73
2020-05-16 21:00:00 17.5 6 Nordeste 27 Norte 0 -- -- 58
2020-05-16 20:00:00 18.1 10 Norte 27 Nordeste 0 -- -- 56
2020-05-16 19:00:00 19 8 Nordeste 24 Nordeste 0 -- -- 56
2020-05-16 18:00:00 17.8 9 Nordeste 21 Nordeste 0 -- -- 58
2020-05-16 17:00:00 17.1 5 Noroeste 14 Oeste 0 -- -- 61
2020-05-16 16:00:00 18.4 5 Oeste 14 Noroeste 0 -- -- 62
2020-05-16 15:00:00 15.4 3 Oeste 8 Este 0 -- -- 73
2020-05-16 14:00:00 14.3 5 Norte 18 Noroeste 0 -- -- 77
2020-05-16 13:00:00 14.8 7 Norte 18 Norte 0 -- -- 74
2020-05-16 12:00:00 14.2 4 Oeste 13 Oeste 0 -- -- 75
2020-05-16 11:00:00 13.5 7 Oeste 12 Oeste 0 -- -- 76
2020-05-16 10:00:00 10.9 3 Oeste 7 Noroeste 0 -- -- 88
2020-05-16 09:00:00 10.3 4 Sur 10 Sudeste 0 -- -- 91
2020-05-16 08:00:00 7.5 6 Sur 13 Sur 0 -- -- 96
2020-05-16 07:00:00 7 7 Sur 10 Sudeste 0 -- -- 97
2020-05-16 06:00:00 7.7 4 Sudeste 12 Sur 0 -- -- 96
2020-05-16 05:00:00 7.3 5 Sur 9 Sudeste 0 -- -- 96
2020-05-16 04:00:00 7.8 6 Sur 10 Sudeste 0 -- -- 96
2020-05-16 03:00:00 9 3 Sudeste 14 Sur 0 -- -- 93
2020-05-16 02:00:00 9.8 7 Sudoeste 15 Sudoeste 0 -- -- 92
2020-05-16 01:00:00 10.8 6 Sudoeste 14 Sudoeste 0 -- -- 88
2020-05-16 00:00:00 11.3 6 Sudoeste 12 Sudoeste 0 -- -- 86
2020-05-15 23:00:00 11.5 10 Sudeste 19 Este 0 -- -- 87
2020-05-15 22:00:00 12.2 8 Nordeste 33 Nordeste 0 -- -- 83
2020-05-15 21:00:00 14.7 6 Nordeste 30 Norte 0 -- -- 64
2020-05-15 20:00:00 17.2 15 Nordeste 30 Nordeste 0 -- -- 56
2020-05-15 19:00:00 16.6 9 Nordeste 25 Norte 0 -- -- 60
2020-05-15 18:00:00 16.3 10 Nordeste 26 Nordeste 0 -- -- 63
2020-05-15 17:00:00 16.4 12 Norte 26 Norte 0 -- -- 67
2020-05-15 16:00:00 14.9 4 Sudeste 12 Sur 0 -- -- 75
2020-05-15 15:00:00 12.9 3 Sudeste 17 Sur 0.6 -- -- 90
2020-05-15 14:00:00 12.5 7 Este 17 Sur 0.4 -- -- 89
2020-05-15 13:00:00 12.6 10 Sur 18 Sur 0 -- -- 87
2020-05-15 12:00:00 13 4 Sudoeste 10 Sudoeste 0 -- -- 84
2020-05-15 11:00:00 12.7 2 Norte 9 Noroeste 0 -- -- 88
2020-05-15 10:00:00 11.7 4 Noroeste 8 Noroeste 0 -- -- 92
2020-05-15 09:00:00 10.6 0 Calma 4 Sur 0 -- -- 97
2020-05-15 08:00:00 9.6 0 Calma 8 Sur 0 -- -- 98
2020-05-15 07:00:00 9.3 4 Sur 5 Sudeste 0 -- -- 98
2020-05-15 06:00:00 9.6 3 Sudeste 7 Sur 0 -- -- 96
2020-05-15 05:00:00 9.2 4 Sur 5 Sur 0 -- -- 96
2020-05-15 04:00:00 10.1 3 Sudeste 6 Sur 0 -- -- 94
2020-05-15 03:00:00 10 4 Sudeste 10 Sur 0 -- -- 92
2020-05-15 02:00:00 10.1 5 Sur 11 Sur 0 -- -- 89
2020-05-15 01:00:00 11 3 Sudoeste 11 Sur 0 -- -- 86
2020-05-15 00:00:00 11.3 4 Sur 11 Norte 0 -- -- 82
2020-05-14 23:00:00 12 3 Oeste 22 Sudeste 0 -- -- 75
2020-05-14 22:00:00 12.6 6 Este 20 Sudeste 0 -- -- 69
2020-05-14 21:00:00 13.5 4 Sudoeste 18 Sudeste 0 -- -- 66
2020-05-14 20:00:00 13.9 9 Sudeste 24 Sudeste 0 -- -- 64
2020-05-14 19:00:00 15.3 6 Nordeste 21 Sur 0 -- -- 63
2020-05-14 18:00:00 15.3 6 Noroeste 19 Este 0 -- -- 70
2020-05-14 17:00:00 15.2 4 Noroeste 14 Noroeste 0 -- -- 65
2020-05-14 16:00:00 14.8 7 Sudeste 20 Oeste 0 -- -- 63
2020-05-14 15:00:00 13.5 8 Noroeste 16 Oeste 0 -- -- 77
2020-05-14 14:00:00 12.2 6 Noroeste 13 Noroeste 0 -- -- 81
2020-05-14 13:00:00 10.5 3 Oeste 9 Noroeste 0 -- -- 85
2020-05-14 12:00:00 9.7 0 Calma 5 Noroeste 0 -- -- 91
2020-05-14 11:00:00 8.2 3 Noroeste 7 Oeste 0 -- -- 98
2020-05-14 10:00:00 7.8 0 Calma 5 Norte 0 -- -- 100
2020-05-14 09:00:00 7.4 2 Noroeste 5 Norte 0 -- -- 100
2020-05-14 08:00:00 7.2 0 Calma 6 Noroeste 0 -- -- 100
2020-05-14 07:00:00 7.1 2 Norte 11 Noroeste 0 -- -- 100
2020-05-14 06:00:00 7.9 5 Noroeste 10 Noroeste 0.6 -- -- 100
2020-05-14 05:00:00 7.9 4 Noroeste 14 Noroeste 2.6 -- -- 100
2020-05-14 04:00:00 9 5 Noroeste 14 Noroeste 4.2 -- -- 99
2020-05-14 03:00:00 9.4 0 Calma 6 Norte 5.4 -- -- 99
2020-05-14 02:00:00 9.7 0 Calma 6 Oeste 1.4 -- -- 97
2020-05-14 01:00:00 10 2 Noroeste 24 Noroeste 0 -- -- 96
2020-05-14 00:00:00 12.5 10 Sudoeste 23 Sudeste 0 -- -- 78
2020-05-13 23:00:00 11.1 4 Noroeste 20 Oeste 0 -- -- 92
2020-05-13 22:00:00 12.8 7 Noroeste 29 Sudeste 0 -- -- 79
2020-05-13 21:00:00 14 18 Sur 39 Sur 0 -- -- 59
2020-05-13 20:00:00 15.2 4 Nordeste 32 Sudoeste 0 -- -- 61
2020-05-13 19:00:00 14.2 12 Sudeste 37 Sudeste 0 -- -- 62
2020-05-13 18:00:00 12.9 3 Este 31 Sudeste 0.2 -- -- 80
2020-05-13 17:00:00 14.8 9 Sudeste 32 Sudeste 0 -- -- 62
2020-05-13 16:00:00 15.1 11 Sudoeste 34 Sudeste 0 -- -- 62
2020-05-13 15:00:00 15 8 Nordeste 24 Sudeste 0 -- -- 63
2020-05-13 14:00:00 13.3 9 Este 27 Este 0 -- -- 79
2020-05-13 13:00:00 11.4 4 Noroeste 16 Sudoeste 0 -- -- 98
2020-05-13 12:00:00 10.6 8 Noroeste 21 Noroeste 0 -- -- 100
2020-05-13 11:00:00 10.8 5 Noroeste 8 Noroeste 0 -- -- 99
2020-05-13 10:00:00 10.7 0 Calma 3 Noroeste 0.2 -- -- 98
2020-05-13 09:00:00 10.1 0 Calma 4 Sur 0 -- -- 100
2020-05-13 08:00:00 9.4 0 Calma 5 Sudeste 0 -- -- 100
2020-05-13 07:00:00 9.1 0 Calma 5 Sudeste 1.2 -- -- 100
2020-05-13 06:00:00 9 3 Sudeste 5 Sudoeste 0 -- -- 100
2020-05-13 05:00:00 9.1 0 Calma 7 Este 0 -- -- 99
2020-05-13 04:00:00 9.1 3 Sur 6 Sur 0 -- -- 100
2020-05-13 03:00:00 9.1 3 Sur 6 Sur 0 -- -- 99
2020-05-13 02:00:00 9.3 4 Sudeste 7 Sudeste 0 -- -- 99
2020-05-13 01:00:00 9.3 4 Sudeste 7 Sudeste 0 -- -- 99
2020-05-13 00:00:00 9.2 3 Sudoeste 6 Sudeste 0 -- -- 99
2020-05-12 23:00:00 9.4 4 Sur 6 Sur 0 -- -- 98
2020-05-12 22:00:00 9.9 0 Calma 2 Sur 0.2 -- -- 98
2020-05-12 21:00:00 10.6 0 Calma 5 Noroeste 0.6 -- -- 97
2020-05-12 20:00:00 10.9 2 Noroeste 5 Noroeste 0.4 -- -- 96
2020-05-12 19:00:00 11 0 Calma 5 Noroeste 0.8 -- -- 94
2020-05-12 18:00:00 11.3 2 Noroeste 10 Norte 0.4 -- -- 90
2020-05-12 17:00:00 11.5 6 Noroeste 25 Noroeste 0.2 -- -- 91
2020-05-12 16:00:00 13.5 8 Noroeste 21 Sudeste 0 -- -- 83
2020-05-12 15:00:00 13.7 2 Sur 9 Sur 0 -- -- 85
2020-05-12 14:00:00 12.4 6 Sur 12 Nordeste 0 -- -- 88
2020-05-12 13:00:00 11.1 4 Este 13 Nordeste 3.8 -- -- 92
2020-05-12 12:00:00 12.3 2 Sudoeste 5 Nordeste 1 -- -- 93
2020-05-12 11:00:00 12 2 Noroeste 6 Nordeste 0.2 -- -- 92
2020-05-12 10:00:00 11.1 0 Calma 5 Norte 0 -- -- 96
2020-05-12 09:00:00 10 2 Sudeste 12 Sur 0 -- -- 96
2020-05-12 08:00:00 8.7 8 Sur 11 Sur 0 -- -- 97
2020-05-12 07:00:00 8.8 6 Sudeste 10 Sur 0 -- -- 98
2020-05-12 06:00:00 8.7 4 Sudeste 17 Sur 0 -- -- 95
2020-05-12 05:00:00 8.7 10 Sur 15 Sur 0 -- -- 95
2020-05-12 04:00:00 8.9 7 Sudeste 15 Sur 0 -- -- 97
2020-05-12 03:00:00 8.8 7 Sur 15 Sur 0 -- -- 97
2020-05-12 02:00:00 9.4 8 Sudeste 14 Sur 0 -- -- 97
2020-05-12 01:00:00 10.1 7 Sur 12 Sur 0 -- -- 97
2020-05-12 00:00:00 11.6 4 Sudeste 8 Sur 0 -- -- 98
2020-05-11 23:00:00 11.9 4 Sur 10 Sudeste 0 -- -- 98
2020-05-11 22:00:00 12 0 Calma 13 Sudoeste 0.4 -- -- 95
2020-05-11 21:00:00 13.5 2 Norte 23 Oeste 0 -- -- 93
2020-05-11 20:00:00 13.2 4 Sudeste 8 Sudeste 0.8 -- -- 97
2020-05-11 19:00:00 13.3 0 Calma 8 Este 1.2 -- -- 94
2020-05-11 18:00:00 13.6 4 Este 10 Este 1.4 -- -- 93
2020-05-11 17:00:00 13.1 3 Sudeste 12 Sudeste 3.4 -- -- 95
2020-05-11 16:00:00 14 5 Nordeste 10 Este 0.6 -- -- 96
2020-05-11 15:00:00 12.2 4 Noroeste 14 Noroeste 1 -- -- 96
2020-05-11 14:00:00 14.8 7 Sur 28 Sur 0 -- -- 74
2020-05-11 13:00:00 15.1 12 Sur 29 Sur 0 -- -- 70
2020-05-11 12:00:00 13.6 10 Sur 25 Sur 0 -- -- 77
2020-05-11 11:00:00 12.6 6 Sudoeste 20 Sur 0.6 -- -- 88
2020-05-11 10:00:00 12.1 8 Sur 26 Sur 0 -- -- 88
2020-05-11 09:00:00 10.3 4 Sudeste 9 Sudeste 0.2 -- -- 96
2020-05-11 08:00:00 9.6 8 Sur 18 Sudeste 2.4 -- -- 91
2020-05-11 07:00:00 9.5 3 Sudeste 21 Sudoeste 1.8 -- -- 97
2020-05-11 06:00:00 9.9 2 Noroeste 9 Sudeste 0 -- -- 98
2020-05-11 05:00:00 10.1 0 Calma 14 Oeste 0 -- -- 97
2020-05-11 04:00:00 10.1 0 Calma 18 Sudoeste 0.6 -- -- 96
2020-05-11 03:00:00 10.3 8 Oeste 19 Oeste 0.2 -- -- 92
2020-05-11 02:00:00 10.1 4 Sudeste 10 Sudeste 0 -- -- 95
2020-05-11 01:00:00 10 4 Sudeste 9 Sudeste 0 -- -- 94
2020-05-11 00:00:00 9.8 5 Sudeste 10 Sur 0 -- -- 93
2020-05-10 23:00:00 9.1 8 Sudeste 14 Sur 0 -- -- 94
2020-05-10 22:00:00 10.8 5 Sudeste 10 Sudeste 0 -- -- 92
2020-05-10 21:00:00 12.4 4 Sudeste 12 Sudeste 0 -- -- 83
2020-05-10 20:00:00 13.1 0 Calma 6 Noroeste 0 -- -- 76
2020-05-10 19:00:00 13.2 4 Noroeste 11 Noroeste 0 -- -- 77
2020-05-10 18:00:00 13.2 8 Noroeste 19 Noroeste 0 -- -- 79
2020-05-10 17:00:00 14.4 9 Oeste 20 Norte 0 -- -- 74
2020-05-10 16:00:00 12.3 5 Noroeste 11 Noroeste 0 -- -- 81
2020-05-10 15:00:00 11.5 5 Noroeste 11 Noroeste 0 -- -- 95
2020-05-10 14:00:00 10.2 7 Noroeste 18 Oeste 2.2 -- -- 97
2020-05-10 13:00:00 9.4 8 Noroeste 21 Oeste 2 -- -- 97
2020-05-10 12:00:00 12 5 Oeste 12 Noroeste 0 -- -- 79
2020-05-10 11:00:00 11.1 4 Oeste 10 Noroeste 0 -- -- 83
2020-05-10 10:00:00 10.3 0 Calma 4 Noroeste 0 -- -- 90
2020-05-10 09:00:00 9.2 0 Calma 4 Sur 0 -- -- 98
2020-05-10 08:00:00 8.2 2 Sur 7 Sur 0 -- -- 98
2020-05-10 07:00:00 8 4 Sudeste 7 Sudeste 0 -- -- 98
2020-05-10 06:00:00 8.6 0 Calma 4 Sur 0 -- -- 98
2020-05-10 05:00:00 8.6 3 Sudeste 6 Sur 0 -- -- 98
2020-05-10 04:00:00 9.2 2 Sur 8 Oeste 0 -- -- 97
2020-05-10 03:00:00 9.6 2 Sur 6 Sur 0 -- -- 98
2020-05-10 02:00:00 9.5 2 Sur 9 Sur 0 -- -- 97
2020-05-10 01:00:00 9.5 4 Sur 8 Sudeste 0 -- -- 96
2020-05-10 00:00:00 9.9 2 Sur 23 Sur 1.2 -- -- 91
2020-05-09 23:00:00 10.9 3 Sudoeste 10 Oeste 0.6 -- -- 96
2020-05-09 22:00:00 11.5 2 Nordeste 23 Sur 0.4 -- -- 91
2020-05-09 21:00:00 12.5 3 Norte 33 Sudeste 0 -- -- 81
2020-05-09 20:00:00 14 20 Sur 40 Sudeste 0 -- -- 62
2020-05-09 19:00:00 14.1 9 Sudoeste 34 Sudoeste 0 -- -- 65
2020-05-09 18:00:00 16.1 8 Sudoeste 36 Sur 0 -- -- 63
2020-05-09 17:00:00 17.5 13 Sur 29 Sudoeste 0 -- -- 59
2020-05-09 16:00:00 17.7 11 Sudoeste 33 Sudeste 0 -- -- 66
2020-05-09 15:00:00 15.8 9 Oeste 24 Sudeste 0 -- -- 78
2020-05-09 14:00:00 14.8 10 Oeste 30 Sur 0 -- -- 75
2020-05-09 13:00:00 15.7 9 Sudoeste 28 Sur 0 -- -- 64
2020-05-09 12:00:00 15.2 9 Sudoeste 30 Sur 0 -- -- 71
2020-05-09 11:00:00 13.2 8 Oeste 25 Noroeste 0 -- -- 90
2020-05-09 10:00:00 12.5 8 Noroeste 18 Oeste 0 -- -- 92
2020-05-09 09:00:00 11.8 4 Noroeste 12 Norte 0 -- -- 95
2020-05-09 08:00:00 12 2 Norte 10 Nordeste 0 -- -- 95
2020-05-09 07:00:00 11.8 4 Norte 22 Oeste 0 -- -- 97
2020-05-09 06:00:00 12.3 6 Oeste 14 Oeste 0 -- -- 97
2020-05-09 05:00:00 13.3 4 Noroeste 10 Oeste 0 -- -- 96
2020-05-09 04:00:00 14 4 Oeste 10 Sur 0 -- -- 86
2020-05-09 03:00:00 14.2 4 Sur 9 Sur 0 -- -- 83
2020-05-09 02:00:00 14.6 4 Sudeste 9 Sudeste 0 -- -- 81
2020-05-09 01:00:00 15.9 0 Calma 14 Sudoeste 0 -- -- 75
2020-05-09 00:00:00 17.5 5 Sudoeste 18 Oeste 0 -- -- 65
2020-05-08 23:00:00 18 6 Sur 19 Oeste 0 -- -- 64
2020-05-08 22:00:00 18.6 6 Sudoeste 18 Sudoeste 0 -- -- 65
2020-05-08 21:00:00 19.7 6 Sudoeste 18 Sudoeste 0 -- -- 62
2020-05-08 20:00:00 21.9 8 Sudoeste 23 Sudoeste 0 -- -- 52
2020-05-08 19:00:00 22 7 Sudoeste 28 Sur 0 -- -- 50
2020-05-08 18:00:00 22.4 11 Sudoeste 32 Sudoeste 0 -- -- 48
2020-05-08 17:00:00 22.7 15 Sur 31 Sudoeste 0 -- -- 54
2020-05-08 16:00:00 22.4 10 Sudoeste 31 Oeste 0 -- -- 53
2020-05-08 15:00:00 22.7 6 Norte 33 Sudoeste 0 -- -- 55
2020-05-08 14:00:00 21.7 8 Nordeste 22 Noroeste 0 -- -- 57
2020-05-08 13:00:00 19.7 8 Noroeste 17 Noroeste 0 -- -- 67
2020-05-08 12:00:00 19.1 6 Noroeste 15 Noroeste 0 -- -- 65
2020-05-08 11:00:00 18.3 8 Noroeste 12 Noroeste 0 -- -- 68
2020-05-08 10:00:00 18.1 3 Norte 8 Norte 0 -- -- 68
2020-05-08 09:00:00 15.8 2 Sudeste 9 Sur 0 -- -- 80
2020-05-08 08:00:00 13.1 7 Sudeste 10 Sur 0 -- -- 87
2020-05-08 07:00:00 13.8 5 Sudeste 12 Este 0 -- -- 85
2020-05-08 06:00:00 14.9 5 Sudeste 11 Noroeste 0 -- -- 82
2020-05-08 05:00:00 17.5 8 Noroeste 24 Sur 0 -- -- 70
2020-05-08 04:00:00 18.7 11 Sur 23 Sur 0 -- -- 58
2020-05-08 03:00:00 20.2 6 Sur 37 Sudeste 0 -- -- 55
2020-05-08 02:00:00 21.2 14 Sudeste 40 Sudeste 0 -- -- 49
2020-05-08 01:00:00 19.6 11 Este 35 Sudeste 0 -- -- 65
2020-05-08 00:00:00 20.4 9 Sudeste 23 Sudoeste 0 -- -- 62
2020-05-07 23:00:00 22 8 Sudeste 32 Sudeste 0 -- -- 52
2020-05-07 22:00:00 21.2 5 Este 18 Sur 0 -- -- 52
2020-05-07 21:00:00 21.9 12 Sudeste 32 Sur 0 -- -- 55
2020-05-07 20:00:00 22.5 5 Sur 21 Sudeste 0 -- -- 53
2020-05-07 19:00:00 24 11 Sur 26 Sur 0 -- -- 50
2020-05-07 18:00:00 24.5 6 Noroeste 10 Noroeste 0 -- -- 55
2020-05-07 17:00:00 24.5 5 Noroeste 19 Noroeste 0 -- -- 53
2020-05-07 16:00:00 23.5 8 Sudoeste 22 Noroeste 0 -- -- 58
2020-05-07 15:00:00 22.5 7 Noroeste 15 Oeste 0 -- -- 64
2020-05-07 14:00:00 21.1 4 Oeste 12 Noroeste 0 -- -- 56
2020-05-07 13:00:00 20.5 5 Norte 21 Noroeste 0 -- -- 61
2020-05-07 12:00:00 19.7 5 Noroeste 20 Oeste 0 -- -- 66
2020-05-07 11:00:00 19.5 3 Norte 10 Noroeste 0 -- -- 62
2020-05-07 10:00:00 17.6 4 Sudoeste 12 Sudeste 0 -- -- 74
2020-05-07 09:00:00 15.1 5 Sudeste 13 Sudeste 0 -- -- 77
2020-05-07 08:00:00 13.6 7 Sudeste 17 Sudeste 0 -- -- 72
2020-05-07 07:00:00 13.3 8 Sur 18 Sudeste 0 -- -- 71
2020-05-07 06:00:00 12.9 7 Sudeste 15 Sudeste 0 -- -- 74
2020-05-07 05:00:00 12.8 8 Sur 14 Sur 0 -- -- 75
2020-05-07 04:00:00 12.9 5 Sudeste 13 Sudeste 0 -- -- 78
2020-05-07 03:00:00 12.9 8 Sudeste 14 Sudeste 0 -- -- 83
2020-05-07 02:00:00 13.6 8 Sudeste 13 Sur 0 -- -- 80
2020-05-07 01:00:00 13.4 8 Sudeste 14 Sudeste 0 -- -- 81
2020-05-07 00:00:00 14.1 6 Sudeste 14 Sur 0 -- -- 77
2020-05-06 23:00:00 14 8 Sudeste 14 Sur 0 -- -- 79
2020-05-06 22:00:00 14.8 9 Sur 13 Sur 0 -- -- 76
2020-05-06 21:00:00 18.8 3 Sur 6 Noroeste 0 -- -- 64
2020-05-06 20:00:00 21.4 2 Sudoeste 10 Oeste 0 -- -- 53
2020-05-06 19:00:00 21 5 Oeste 15 Noroeste 0 -- -- 54
2020-05-06 18:00:00 21 8 Noroeste 18 Oeste 0 -- -- 54
2020-05-06 17:00:00 20.6 8 Oeste 20 Noroeste 0 -- -- 57
2020-05-06 16:00:00 20.1 8 Oeste 19 Noroeste 0 -- -- 63
2020-05-06 15:00:00 19.6 9 Oeste 19 Oeste 0 -- -- 56
2020-05-06 14:00:00 19.3 8 Noroeste 21 Oeste 0 -- -- 54
2020-05-06 13:00:00 18.7 6 Oeste 14 Oeste 0 -- -- 62
2020-05-06 12:00:00 17.4 4 Oeste 12 Oeste 0 -- -- 64
2020-05-06 11:00:00 15.5 6 Oeste 12 Oeste 0 -- -- 78
2020-05-06 10:00:00 15 3 Oeste 6 Sudoeste 0 -- -- 71
2020-05-06 09:00:00 12.2 4 Sudeste 12 Sur 0 -- -- 86
2020-05-06 08:00:00 9.8 6 Sudeste 12 Sur 0 -- -- 90
2020-05-06 07:00:00 9.6 6 Sudeste 15 Sudeste 0 -- -- 89
2020-05-06 06:00:00 9.9 8 Sudeste 17 Sur 0 -- -- 86
2020-05-06 05:00:00 10.3 10 Sur 18 Sur 0 -- -- 84
2020-05-06 04:00:00 11.1 12 Sur 17 Sur 0 -- -- 80
2020-05-06 03:00:00 10.3 10 Sur 16 Sur 0 -- -- 83
2020-05-06 02:00:00 11.6 12 Sur 17 Sur 0 -- -- 77
2020-05-06 01:00:00 11.3 12 Sur 16 Sur 0 -- -- 80
2020-05-06 00:00:00 11.4 6 Sudeste 16 Sur 0 -- -- 79
2020-05-05 23:00:00 11.6 8 Sudeste 13 Sur 0 -- -- 78
2020-05-05 22:00:00 12.7 8 Sudeste 14 Sur 0 -- -- 77
2020-05-05 21:00:00 17.6 2 Noroeste 12 Noroeste 0 -- -- 59
2020-05-05 20:00:00 18.2 8 Oeste 21 Oeste 0 -- -- 53
2020-05-05 19:00:00 18.7 9 Oeste 23 Noroeste 0 -- -- 54
2020-05-05 18:00:00 18.8 13 Noroeste 27 Oeste 0 -- -- 53
2020-05-05 17:00:00 18.8 12 Noroeste 26 Oeste 0 -- -- 54
2020-05-05 16:00:00 18.2 12 Noroeste 25 Noroeste 0 -- -- 59
2020-05-05 15:00:00 17.4 10 Noroeste 21 Noroeste 0 -- -- 66
2020-05-05 14:00:00 16.8 9 Oeste 18 Oeste 0 -- -- 67
2020-05-05 13:00:00 15.7 5 Norte 15 Noroeste 0 -- -- 72
2020-05-05 12:00:00 14.2 5 Oeste 14 Noroeste 0 -- -- 80
2020-05-05 11:00:00 13.1 6 Noroeste 12 Noroeste 0 -- -- 87
2020-05-05 10:00:00 12 5 Noroeste 11 Noroeste 0 -- -- 86
2020-05-05 09:00:00 10.1 2 Este 8 Sur 0 -- -- 96
2020-05-05 08:00:00 8.1 5 Sudeste 8 Sur 0 -- -- 93
2020-05-05 07:00:00 8.6 7 Sur 10 Sur 0 -- -- 85
2020-05-05 06:00:00 8.7 8 Sur 12 Sur 0 -- -- 89
2020-05-05 05:00:00 9.1 5 Sur 13 Sudeste 0 -- -- 86
2020-05-05 04:00:00 9.5 7 Sudeste 11 Sudeste 0 -- -- 83
2020-05-05 03:00:00 10 5 Sudeste 11 Sudeste 0 -- -- 83
2020-05-05 02:00:00 10.8 6 Sudeste 13 Sur 0 -- -- 84
2020-05-05 01:00:00 12.1 3 Sudeste 10 Sudeste 0 -- -- 78
2020-05-05 00:00:00 13.2 2 Este 17 Noroeste 0 -- -- 69
2020-05-04 23:00:00 13.8 3 Oeste 13 Sudoeste 0 -- -- 73
2020-05-04 22:00:00 16.4 8 Sudoeste 24 Oeste 0 -- -- 68
2020-05-04 21:00:00 17.6 9 Oeste 29 Oeste 0 -- -- 68
2020-05-04 20:00:00 19.1 11 Oeste 31 Oeste 0 -- -- 63
2020-05-04 19:00:00 19.8 15 Oeste 35 Oeste 0 -- -- 61
2020-05-04 18:00:00 20.4 13 Oeste 43 Oeste 0 -- -- 68
2020-05-04 17:00:00 21.4 14 Oeste 50 Sudeste 0 -- -- 55
2020-05-04 16:00:00 22.1 22 Sur 45 Sur 0 -- -- 53
2020-05-04 15:00:00 22.5 17 Sur 52 Sur 0 -- -- 51
2020-05-04 14:00:00 24 26 Sur 55 Sur 0 -- -- 41
2020-05-04 13:00:00 24.6 20 Sur 49 Sur 0 -- -- 41
2020-05-04 12:00:00 24.9 15 Sur 49 Este 0 -- -- 38
2020-05-04 11:00:00 23.9 18 Sudeste 52 Este 0 -- -- 38
2020-05-04 10:00:00 24.1 22 Sudeste 67 Este 0 -- -- 38
2020-05-04 09:00:00 23.9 19 Sudeste 47 Sudeste 0 -- -- 36
2020-05-04 08:00:00 23.9 19 Sudeste 48 Sudeste 0 -- -- 37
2020-05-04 07:00:00 24 23 Sudeste 44 Sudeste 0 -- -- 37
2020-05-04 06:00:00 24.3 24 Sudeste 51 Sudeste 0 -- -- 35
2020-05-04 05:00:00 24.2 26 Sudeste 46 Sudeste 0 -- -- 36
2020-05-04 04:00:00 24.4 24 Sudeste 42 Sudeste 0 -- -- 37
2020-05-04 03:00:00 24.4 19 Sudeste 40 Sudeste 0 -- -- 38
2020-05-04 02:00:00 24.7 23 Sudeste 42 Sudeste 0 -- -- 38
2020-05-04 01:00:00 24.7 23 Sur 40 Sudeste 0 -- -- 37
2020-05-04 00:00:00 24.4 17 Sur 32 Sudeste 0 -- -- 39
2020-05-03 23:00:00 23.6 10 Sudeste 24 Sur 0 -- -- 41
2020-05-03 22:00:00 24.1 15 Sur 30 Sudeste 0 -- -- 40
2020-05-03 21:00:00 23.9 14 Sudeste 31 Sudeste 0 -- -- 41
2020-05-03 20:00:00 24.9 16 Sur 34 Sudeste 0 -- -- 41
2020-05-03 19:00:00 25.8 13 Sur 35 Sudeste 0 -- -- 38
2020-05-03 18:00:00 26.8 5 Sur 30 Sudeste 0 -- -- 37
2020-05-03 17:00:00 26.1 13 Sur 33 Sudeste 0 -- -- 38
2020-05-03 16:00:00 26.2 14 Sudeste 27 Sudeste 0 -- -- 38
2020-05-03 15:00:00 25.6 6 Noroeste 28 Sudeste 0 -- -- 46
2020-05-03 14:00:00 24.7 9 Noroeste 24 Sudoeste 0 -- -- 46
2020-05-03 13:00:00 24.1 9 Nordeste 21 Este 0 -- -- 56
2020-05-03 12:00:00 23.4 9 Sudeste 23 Sudoeste 0 -- -- 47
2020-05-03 11:00:00 20.9 6 Oeste 20 Sudoeste 0 -- -- 62
2020-05-03 10:00:00 19.2 2 Sur 9 Sudeste 0 -- -- 69
2020-05-03 09:00:00 15.5 4 Sur 12 Sudeste 0 -- -- 85
2020-05-03 08:00:00 11.4 8 Sur 13 Sudeste 0 -- -- 92
2020-05-03 07:00:00 11.2 9 Sudeste 14 Sudeste 0 -- -- 92
2020-05-03 06:00:00 11.5 9 Sudeste 16 Sur 0 -- -- 93
2020-05-03 05:00:00 11.8 11 Sudeste 16 Sudeste 0 -- -- 88
2020-05-03 04:00:00 11.5 10 Sudeste 18 Sur 0 -- -- 81
2020-05-03 03:00:00 11.5 10 Sur 18 Sur 0 -- -- 79
2020-05-03 02:00:00 12.9 11 Sur 17 Sudeste 0 -- -- 73
2020-05-03 01:00:00 13.5 13 Sur 25 Sur 0 -- -- 75
2020-05-03 00:00:00 13.6 14 Sur 19 Sur 0 -- -- 69
2020-05-02 23:00:00 14 9 Sudeste 15 Sudeste 0 -- -- 81
2020-05-02 22:00:00 14.9 8 Sudeste 12 Sur 0 -- -- 79
2020-05-02 21:00:00 19.3 3 Sur 8 Noroeste 0 -- -- 66
2020-05-02 20:00:00 22 2 Sur 12 Noroeste 0 -- -- 57
2020-05-02 19:00:00 21.9 5 Noroeste 14 Noroeste 0 -- -- 63
2020-05-02 18:00:00 21.8 7 Noroeste 15 Oeste 0 -- -- 57
2020-05-02 17:00:00 21.6 8 Noroeste 18 Noroeste 0 -- -- 55
2020-05-02 16:00:00 20.8 9 Noroeste 19 Noroeste 0 -- -- 63
2020-05-02 15:00:00 19.6 7 Oeste 17 Noroeste 0 -- -- 75
2020-05-02 14:00:00 18.8 8 Noroeste 21 Noroeste 0 -- -- 73
2020-05-02 13:00:00 18.1 7 Oeste 19 Oeste 0 -- -- 77
2020-05-02 12:00:00 17.2 6 Noroeste 15 Noroeste 0 -- -- 79
2020-05-02 11:00:00 16.4 6 Noroeste 13 Noroeste 0 -- -- 82
2020-05-02 10:00:00 15.3 2 Noroeste 6 Sudeste 0 -- -- 79
2020-05-02 09:00:00 12.8 5 Sudeste 12 Sur 0 -- -- 92
2020-05-02 08:00:00 10.1 8 Sudeste 13 Sur 0 -- -- 98
2020-05-02 07:00:00 10.4 8 Sudeste 15 Sur 0 -- -- 97
2020-05-02 06:00:00 10.8 7 Sudeste 13 Sur 0 -- -- 98
2020-05-02 05:00:00 11 7 Sudeste 12 Sur 0 -- -- 100
2020-05-02 04:00:00 11.3 7 Sur 13 Sur 0 -- -- 98
2020-05-02 03:00:00 11.8 7 Sur 13 Sur 0 -- -- 97
2020-05-02 02:00:00 13.2 5 Sudeste 9 Sur 0 -- -- 93
2020-05-02 01:00:00 14.3 4 Sudeste 6 Sudoeste 0 -- -- 93
2020-05-02 00:00:00 15 0 Calma 6 Sudoeste 0 -- -- 90